sensor_id;sensor_type;location;lat;lon;timestamp;pressure;altitude;pressure_sealevel;temperature;humidity
50867;BME280;36839;51.946;21.002;2022-12-11T00:01:43;99162.38;;;-1.70;100.00
50867;BME280;36839;51.946;21.002;2022-12-11T00:04:10;99171.11;;;-1.68;100.00
50867;BME280;36839;51.946;21.002;2022-12-11T00:06:38;99171.11;;;-1.68;100.00
50867;BME280;36839;51.946;21.002;2022-12-11T00:09:07;99157.50;;;-1.70;100.00
50867;BME280;36839;51.946;21.002;2022-12-11T00:11:38;99155.09;;;-1.69;100.00
50867;BME280;36839;51.946;21.002;2022-12-11T00:14:08;99158.18;;;-1.66;100.00
50867;BME280;36839;51.946;21.002;2022-12-11T00:16:36;99154.50;;;-1.62;100.00
50867;BME280;36839;51.946;21.002;2022-12-11T00:19:04;99156.08;;;-1.64;100.00
50867;BME280;36839;51.946;21.002;2022-12-11T00:21:31;99151.27;;;-1.62;100.00
50867;BME280;36839;51.946;21.002;2022-12-11T00:23:58;99154.31;;;-1.61;100.00
50867;BME280;36839;51.946;21.002;2022-12-11T00:26:27;99154.31;;;-1.61;100.00
50867;BME280;36839;51.946;21.002;2022-12-11T00:28:54;99160.28;;;-1.68;100.00
50867;BME280;36839;51.946;21.002;2022-12-11T00:31:24;99160.28;;;-1.68;100.00
50867;BME280;36839;51.946;21.002;2022-12-11T00:33:51;99156.86;;;-1.73;100.00
50867;BME280;36839;51.946;21.002;2022-12-11T00:36:24;99152.19;;;-1.75;100.00
50867;BME280;36839;51.946;21.002;2022-12-11T00:38:52;99148.88;;;-1.77;100.00
50867;BME280;36839;51.946;21.002;2022-12-11T00:41:21;99144.84;;;-1.83;100.00
50867;BME280;36839;51.946;21.002;2022-12-11T00:43:51;99139.33;;;-1.79;100.00
50867;BME280;36839;51.946;21.002;2022-12-11T00:46:20;99145.27;;;-1.80;100.00
50867;BME280;36839;51.946;21.002;2022-12-11T00:48:46;99139.33;;;-1.79;100.00
50867;BME280;36839;51.946;21.002;2022-12-11T00:51:16;99141.20;;;-1.80;100.00
50867;BME280;36839;51.946;21.002;2022-12-11T00:53:44;99139.33;;;-1.79;100.00
50867;BME280;36839;51.946;21.002;2022-12-11T00:56:16;99145.27;;;-1.80;100.00
50867;BME280;36839;51.946;21.002;2022-12-11T00:58:48;99151.39;;;-1.82;100.00
50867;BME280;36839;51.946;21.002;2022-12-11T01:01:18;99144.32;;;-1.83;100.00
50867;BME280;36839;51.946;21.002;2022-12-11T01:03:45;99146.34;;;-1.87;100.00
50867;BME280;36839;51.946;21.002;2022-12-11T01:06:20;99140.81;;;-1.90;100.00
50867;BME280;36839;51.946;21.002;2022-12-11T01:08:49;99150.28;;;-1.90;100.00
50867;BME280;36839;51.946;21.002;2022-12-11T01:11:23;99139.40;;;-1.99;100.00
50867;BME280;36839;51.946;21.002;2022-12-11T01:13:49;99145.86;;;-2.00;100.00
50867;BME280;36839;51.946;21.002;2022-12-11T01:16:19;99151.41;;;-2.04;100.00
50867;BME280;36839;51.946;21.002;2022-12-11T01:18:50;99143.43;;;-2.08;100.00
50867;BME280;36839;51.946;21.002;2022-12-11T01:21:20;99136.02;;;-2.10;100.00
50867;BME280;36839;51.946;21.002;2022-12-11T01:23:50;99129.48;;;-2.12;100.00
50867;BME280;36839;51.946;21.002;2022-12-11T01:26:17;99129.48;;;-2.12;100.00
50867;BME280;36839;51.946;21.002;2022-12-11T01:28:44;99125.95;;;-2.12;100.00
50867;BME280;36839;51.946;21.002;2022-12-11T01:31:14;99117.22;;;-2.14;100.00
50867;BME280;36839;51.946;21.002;2022-12-11T01:33:42;99120.38;;;-2.17;100.00
50867;BME280;36839;51.946;21.002;2022-12-11T01:36:12;99108.39;;;-2.19;100.00
50867;BME280;36839;51.946;21.002;2022-12-11T01:38:39;99109.66;;;-2.21;100.00
50867;BME280;36839;51.946;21.002;2022-12-11T01:41:07;99096.66;;;-2.22;100.00
50867;BME280;36839;51.946;21.002;2022-12-11T01:43:53;99095.00;;;-2.23;100.00
50867;BME280;36839;51.946;21.002;2022-12-11T01:46:02;99095.00;;;-2.23;100.00
50867;BME280;36839;51.946;21.002;2022-12-11T01:48:30;99098.45;;;-2.25;100.00
50867;BME280;36839;51.946;21.002;2022-12-11T01:51:01;99084.09;;;-2.25;100.00
50867;BME280;36839;51.946;21.002;2022-12-11T01:53:32;99085.45;;;-2.25;100.00
50867;BME280;36839;51.946;21.002;2022-12-11T01:55:58;99082.11;;;-2.27;100.00
50867;BME280;36839;51.946;21.002;2022-12-11T01:58:32;99082.11;;;-2.27;100.00
50867;BME280;36839;51.946;21.002;2022-12-11T02:00:57;99079.02;;;-2.31;100.00
50867;BME280;36839;51.946;21.002;2022-12-11T02:03:24;99080.50;;;-2.35;100.00
50867;BME280;36839;51.946;21.002;2022-12-11T02:05:52;99080.50;;;-2.35;100.00
50867;BME280;36839;51.946;21.002;2022-12-11T02:08:22;99082.02;;;-2.30;100.00
50867;BME280;36839;51.946;21.002;2022-12-11T02:11:10;99082.97;;;-2.27;100.00
50867;BME280;36839;51.946;21.002;2022-12-11T02:13:41;99082.97;;;-2.27;100.00
50867;BME280;36839;51.946;21.002;2022-12-11T02:18:41;99060.75;;;-2.36;100.00
50867;BME280;36839;51.946;21.002;2022-12-11T02:21:12;99066.23;;;-2.33;100.00
50867;BME280;36839;51.946;21.002;2022-12-11T02:24:03;99063.34;;;-2.38;100.00
50867;BME280;36839;51.946;21.002;2022-12-11T02:29:21;99054.64;;;-2.47;100.00
50867;BME280;36839;51.946;21.002;2022-12-11T02:31:57;99054.64;;;-2.47;100.00
50867;BME280;36839;51.946;21.002;2022-12-11T02:34:39;99057.34;;;-2.47;100.00
50867;BME280;36839;51.946;21.002;2022-12-11T02:37:10;99055.60;;;-2.50;100.00
50867;BME280;36839;51.946;21.002;2022-12-11T02:39:39;99050.28;;;-2.48;100.00
50867;BME280;36839;51.946;21.002;2022-12-11T02:42:10;99052.45;;;-2.47;100.00
50867;BME280;36839;51.946;21.002;2022-12-11T02:44:39;99047.63;;;-2.54;100.00
50867;BME280;36839;51.946;21.002;2022-12-11T02:47:11;99047.63;;;-2.54;100.00
50867;BME280;36839;51.946;21.002;2022-12-11T02:49:40;99058.32;;;-2.57;100.00
50867;BME280;36839;51.946;21.002;2022-12-11T02:52:11;99054.18;;;-2.60;100.00
50867;BME280;36839;51.946;21.002;2022-12-11T02:54:40;99054.18;;;-2.60;100.00
50867;BME280;36839;51.946;21.002;2022-12-11T02:59:58;99048.53;;;-2.74;100.00
50867;BME280;36839;51.946;21.002;2022-12-11T03:02:27;99058.30;;;-2.73;100.00
50867;BME280;36839;51.946;21.002;2022-12-11T03:04:54;99058.30;;;-2.73;100.00
50867;BME280;36839;51.946;21.002;2022-12-11T03:07:26;99046.02;;;-2.75;100.00
50867;BME280;36839;51.946;21.002;2022-12-11T03:09:54;99046.02;;;-2.75;100.00
50867;BME280;36839;51.946;21.002;2022-12-11T03:12:29;99047.59;;;-2.77;100.00
50867;BME280;36839;51.946;21.002;2022-12-11T03:15:00;99060.40;;;-2.81;100.00
50867;BME280;36839;51.946;21.002;2022-12-11T03:17:39;99060.92;;;-2.82;100.00
50867;BME280;36839;51.946;21.002;2022-12-11T03:28:12;99058.44;;;-2.83;100.00
50867;BME280;36839;51.946;21.002;2022-12-11T03:30:40;99058.44;;;-2.83;100.00
50867;BME280;36839;51.946;21.002;2022-12-11T03:33:12;99057.70;;;-2.81;100.00
50867;BME280;36839;51.946;21.002;2022-12-11T03:35:43;99061.14;;;-2.83;100.00
50867;BME280;36839;51.946;21.002;2022-12-11T03:38:26;99069.77;;;-2.84;100.00
50867;BME280;36839;51.946;21.002;2022-12-11T03:40:51;99069.77;;;-2.84;100.00
50867;BME280;36839;51.946;21.002;2022-12-11T03:43:20;99060.80;;;-2.84;100.00
50867;BME280;36839;51.946;21.002;2022-12-11T03:45:48;99060.80;;;-2.84;100.00
50867;BME280;36839;51.946;21.002;2022-12-11T03:48:18;99056.26;;;-2.84;100.00
50867;BME280;36839;51.946;21.002;2022-12-11T03:50:53;99060.40;;;-2.81;100.00
50867;BME280;36839;51.946;21.002;2022-12-11T03:53:20;99060.40;;;-2.81;100.00
50867;BME280;36839;51.946;21.002;2022-12-11T03:55:50;99043.37;;;-2.89;100.00
50867;BME280;36839;51.946;21.002;2022-12-11T03:58:18;99037.44;;;-2.88;100.00
50867;BME280;36839;51.946;21.002;2022-12-11T04:00:44;99035.88;;;-2.87;100.00
50867;BME280;36839;51.946;21.002;2022-12-11T04:03:11;99037.75;;;-2.87;100.00
50867;BME280;36839;51.946;21.002;2022-12-11T04:05:40;99023.33;;;-2.90;100.00
50867;BME280;36839;51.946;21.002;2022-12-11T04:08:06;99021.14;;;-2.91;100.00
50867;BME280;36839;51.946;21.002;2022-12-11T04:10:34;99027.59;;;-2.92;100.00
50867;BME280;36839;51.946;21.002;2022-12-11T04:13:01;99023.55;;;-2.92;100.00
50867;BME280;36839;51.946;21.002;2022-12-11T04:15:28;99017.83;;;-2.93;100.00
50867;BME280;36839;51.946;21.002;2022-12-11T04:17:57;99023.76;;;-2.93;100.00
50867;BME280;36839;51.946;21.002;2022-12-11T04:20:38;99028.34;;;-2.94;100.00
50867;BME280;36839;51.946;21.002;2022-12-11T04:23:18;99032.27;;;-2.96;100.00
50867;BME280;36839;51.946;21.002;2022-12-11T04:26:07;99019.06;;;-2.95;100.00
50867;BME280;36839;51.946;21.002;2022-12-11T04:28:35;99023.34;;;-2.97;100.00
50867;BME280;36839;51.946;21.002;2022-12-11T04:31:03;99028.52;;;-2.95;100.00
50867;BME280;36839;51.946;21.002;2022-12-11T04:33:31;99033.92;;;-2.95;100.00
50867;BME280;36839;51.946;21.002;2022-12-11T04:35:59;99024.77;;;-2.94;100.00
50867;BME280;36839;51.946;21.002;2022-12-11T04:38:26;99029.16;;;-2.93;100.00
50867;BME280;36839;51.946;21.002;2022-12-11T04:41:04;99028.12;;;-2.92;100.00
50867;BME280;36839;51.946;21.002;2022-12-11T04:43:33;99029.25;;;-2.91;100.00
50867;BME280;36839;51.946;21.002;2022-12-11T04:46:06;99021.36;;;-2.92;100.00
50867;BME280;36839;51.946;21.002;2022-12-11T04:48:33;99021.36;;;-2.92;100.00
50867;BME280;36839;51.946;21.002;2022-12-11T04:51:02;99013.66;;;-2.95;100.00
50867;BME280;36839;51.946;21.002;2022-12-11T04:53:30;99013.66;;;-2.95;100.00
50867;BME280;36839;51.946;21.002;2022-12-11T04:55:57;99000.38;;;-2.97;100.00
50867;BME280;36839;51.946;21.002;2022-12-11T04:58:24;98993.45;;;-3.02;100.00
50867;BME280;36839;51.946;21.002;2022-12-11T05:00:51;98983.70;;;-3.09;100.00
50867;BME280;36839;51.946;21.002;2022-12-11T05:03:18;98986.48;;;-3.07;100.00
50867;BME280;36839;51.946;21.002;2022-12-11T05:05:49;98980.58;;;-3.13;100.00
50867;BME280;36839;51.946;21.002;2022-12-11T05:08:18;98985.37;;;-3.15;100.00
50867;BME280;36839;51.946;21.002;2022-12-11T05:11:02;98977.39;;;-3.19;100.00
50867;BME280;36839;51.946;21.002;2022-12-11T05:13:32;98977.39;;;-3.19;100.00
50867;BME280;36839;51.946;21.002;2022-12-11T05:15:59;98971.69;;;-3.20;100.00
50867;BME280;36839;51.946;21.002;2022-12-11T05:18:28;98956.63;;;-3.25;100.00
50867;BME280;36839;51.946;21.002;2022-12-11T05:21:00;98953.62;;;-3.26;100.00
50867;BME280;36839;51.946;21.002;2022-12-11T05:23:29;98957.06;;;-3.28;100.00
50867;BME280;36839;51.946;21.002;2022-12-11T05:25:58;98940.65;;;-3.27;100.00
50867;BME280;36839;51.946;21.002;2022-12-11T05:28:28;98949.05;;;-3.26;100.00
50867;BME280;36839;51.946;21.002;2022-12-11T05:30:56;98940.13;;;-3.26;100.00
50867;BME280;36839;51.946;21.002;2022-12-11T05:33:25;98946.66;;;-3.25;100.00
50867;BME280;36839;51.946;21.002;2022-12-11T05:35:54;98940.95;;;-3.26;100.00
50867;BME280;36839;51.946;21.002;2022-12-11T05:38:22;98941.47;;;-3.26;100.00
50867;BME280;36839;51.946;21.002;2022-12-11T05:41:00;98931.52;;;-3.32;100.00
50867;BME280;36839;51.946;21.002;2022-12-11T05:43:30;98928.94;;;-3.30;100.00
50867;BME280;36839;51.946;21.002;2022-12-11T05:46:06;98926.23;;;-3.30;100.00
50867;BME280;36839;51.946;21.002;2022-12-11T05:48:34;98926.02;;;-3.28;100.00
50867;BME280;36839;51.946;21.002;2022-12-11T05:51:01;98923.53;;;-3.30;100.00
50867;BME280;36839;51.946;21.002;2022-12-11T05:53:29;98923.75;;;-3.31;100.00
50867;BME280;36839;51.946;21.002;2022-12-11T05:56:08;98927.16;;;-3.33;100.00
50867;BME280;36839;51.946;21.002;2022-12-11T05:58:40;98922.59;;;-3.33;100.00
50867;BME280;36839;51.946;21.002;2022-12-11T06:01:12;98923.77;;;-3.38;100.00
50867;BME280;36839;51.946;21.002;2022-12-11T06:03:40;98928.95;;;-3.36;100.00
50867;BME280;36839;51.946;21.002;2022-12-11T06:06:07;98931.42;;;-3.35;100.00
50867;BME280;36839;51.946;21.002;2022-12-11T06:08:34;98939.44;;;-3.37;100.00
50867;BME280;36839;51.946;21.002;2022-12-11T06:11:02;98939.44;;;-3.37;100.00
50867;BME280;36839;51.946;21.002;2022-12-11T06:13:29;98935.00;;;-3.41;100.00
50867;BME280;36839;51.946;21.002;2022-12-11T06:16:00;98939.23;;;-3.42;100.00
50867;BME280;36839;51.946;21.002;2022-12-11T06:18:33;98935.09;;;-3.45;100.00
50867;BME280;36839;51.946;21.002;2022-12-11T06:20:58;98944.23;;;-3.46;100.00
50867;BME280;36839;51.946;21.002;2022-12-11T06:23:24;98935.74;;;-3.50;100.00
50867;BME280;36839;51.946;21.002;2022-12-11T06:25:52;98938.44;;;-3.50;100.00
50867;BME280;36839;51.946;21.002;2022-12-11T06:28:19;98949.75;;;-3.50;100.00
50867;BME280;36839;51.946;21.002;2022-12-11T06:30:45;98941.54;;;-3.53;100.00
50867;BME280;36839;51.946;21.002;2022-12-11T06:33:12;98944.97;;;-3.55;100.00
50867;BME280;36839;51.946;21.002;2022-12-11T06:35:39;98944.97;;;-3.55;100.00
50867;BME280;36839;51.946;21.002;2022-12-11T06:38:06;98940.53;;;-3.58;100.00
50867;BME280;36839;51.946;21.002;2022-12-11T06:40:33;98940.53;;;-3.58;100.00
50867;BME280;36839;51.946;21.002;2022-12-11T06:43:04;98949.98;;;-3.58;100.00
50867;BME280;36839;51.946;21.002;2022-12-11T06:45:32;98935.84;;;-3.60;100.00
50867;BME280;36839;51.946;21.002;2022-12-11T06:47:59;98935.84;;;-3.60;100.00
50867;BME280;36839;51.946;21.002;2022-12-11T06:50:27;98937.92;;;-3.62;100.00
50867;BME280;36839;51.946;21.002;2022-12-11T06:52:56;98933.87;;;-3.62;100.00
50867;BME280;36839;51.946;21.002;2022-12-11T06:55:22;98944.06;;;-3.64;100.00
50867;BME280;36839;51.946;21.002;2022-12-11T06:57:49;98940.14;;;-3.68;100.00
50867;BME280;36839;51.946;21.002;2022-12-11T07:00:17;98940.14;;;-3.68;100.00
50867;BME280;36839;51.946;21.002;2022-12-11T07:02:44;98927.05;;;-3.71;100.00
50867;BME280;36839;51.946;21.002;2022-12-11T07:05:11;98927.05;;;-3.71;100.00
50867;BME280;36839;51.946;21.002;2022-12-11T07:07:37;98926.73;;;-3.72;100.00
50867;BME280;36839;51.946;21.002;2022-12-11T07:10:07;98922.47;;;-3.71;100.00
50867;BME280;36839;51.946;21.002;2022-12-11T07:12:35;98926.83;;;-3.70;100.00
50867;BME280;36839;51.946;21.002;2022-12-11T07:15:03;98916.98;;;-3.74;100.00
50867;BME280;36839;51.946;21.002;2022-12-11T07:17:36;98917.20;;;-3.68;100.00
50867;BME280;36839;51.946;21.002;2022-12-11T07:20:03;98917.20;;;-3.68;100.00
50867;BME280;36839;51.946;21.002;2022-12-11T07:22:31;98908.19;;;-3.85;100.00
50867;BME280;36839;51.946;21.002;2022-12-11T07:24:58;98910.37;;;-3.84;100.00
50867;BME280;36839;51.946;21.002;2022-12-11T07:27:26;98898.45;;;-3.86;100.00
50867;BME280;36839;51.946;21.002;2022-12-11T07:29:56;98896.48;;;-3.88;100.00
50867;BME280;36839;51.946;21.002;2022-12-11T07:32:25;98903.41;;;-3.89;100.00
50867;BME280;36839;51.946;21.002;2022-12-11T07:34:55;98905.41;;;-3.87;100.00
50867;BME280;36839;51.946;21.002;2022-12-11T07:37:22;98892.53;;;-3.92;100.00
50867;BME280;36839;51.946;21.002;2022-12-11T07:39:49;98892.53;;;-3.92;100.00
50867;BME280;36839;51.946;21.002;2022-12-11T07:42:16;98893.78;;;-3.94;100.00
50867;BME280;36839;51.946;21.002;2022-12-11T07:44:46;98893.78;;;-3.94;100.00
50867;BME280;36839;51.946;21.002;2022-12-11T07:47:15;98898.75;;;-3.85;100.00
50867;BME280;36839;51.946;21.002;2022-12-11T07:49:41;98903.94;;;-3.83;100.00
50867;BME280;36839;51.946;21.002;2022-12-11T07:52:11;98891.92;;;-3.87;100.00
50867;BME280;36839;51.946;21.002;2022-12-11T07:54:40;98903.53;;;-3.87;100.00
50867;BME280;36839;51.946;21.002;2022-12-11T07:57:08;98903.53;;;-3.87;100.00
50867;BME280;36839;51.946;21.002;2022-12-11T07:59:36;98895.75;;;-3.92;100.00
50867;BME280;36839;51.946;21.002;2022-12-11T08:02:05;98897.00;;;-3.95;100.00
50867;BME280;36839;51.946;21.002;2022-12-11T08:04:33;98889.52;;;-3.99;100.00
50867;BME280;36839;51.946;21.002;2022-12-11T08:07:01;98889.52;;;-3.99;100.00
50867;BME280;36839;51.946;21.002;2022-12-11T08:09:29;98886.83;;;-3.93;100.00
50867;BME280;36839;51.946;21.002;2022-12-11T08:11:59;98890.36;;;-3.86;100.00
50867;BME280;36839;51.946;21.002;2022-12-11T08:14:27;98883.91;;;-3.85;100.00
50867;BME280;36839;51.946;21.002;2022-12-11T08:16:54;98883.91;;;-3.85;100.00
50867;BME280;36839;51.946;21.002;2022-12-11T08:19:24;98874.48;;;-3.91;100.00
50867;BME280;36839;51.946;21.002;2022-12-11T08:21:50;98878.83;;;-3.90;100.00
50867;BME280;36839;51.946;21.002;2022-12-11T08:24:18;98871.05;;;-3.89;100.00
50867;BME280;36839;51.946;21.002;2022-12-11T08:26:46;98874.39;;;-3.94;100.00
50867;BME280;36839;51.946;21.002;2022-12-11T08:29:14;98874.39;;;-3.94;100.00
50867;BME280;36839;51.946;21.002;2022-12-11T08:31:40;98857.08;;;-3.95;100.00
50867;BME280;36839;51.946;21.002;2022-12-11T08:34:10;98862.34;;;-3.98;100.00
50867;BME280;36839;51.946;21.002;2022-12-11T08:36:38;98857.37;;;-3.94;100.00
50867;BME280;36839;51.946;21.002;2022-12-11T08:39:05;98857.37;;;-3.94;100.00
50867;BME280;36839;51.946;21.002;2022-12-11T08:41:32;98862.95;;;-3.89;100.00
50867;BME280;36839;51.946;21.002;2022-12-11T08:43:59;98858.59;;;-3.84;100.00
50867;BME280;36839;51.946;21.002;2022-12-11T08:46:29;98861.98;;;-3.72;100.00
50867;BME280;36839;51.946;21.002;2022-12-11T08:49:01;98861.98;;;-3.72;100.00
50867;BME280;36839;51.946;21.002;2022-12-11T08:51:34;98863.47;;;-3.77;100.00
50867;BME280;36839;51.946;21.002;2022-12-11T08:54:04;98871.34;;;-3.75;100.00
50867;BME280;36839;51.946;21.002;2022-12-11T08:56:31;98871.34;;;-3.75;100.00
50867;BME280;36839;51.946;21.002;2022-12-11T08:59:00;98867.08;;;-3.74;100.00
50867;BME280;36839;51.946;21.002;2022-12-11T09:01:29;98857.42;;;-3.72;100.00
50867;BME280;36839;51.946;21.002;2022-12-11T09:03:59;98857.13;;;-3.80;100.00
50867;BME280;36839;51.946;21.002;2022-12-11T09:06:28;98857.16;;;-3.86;100.00
50867;BME280;36839;51.946;21.002;2022-12-11T09:08:58;98849.68;;;-3.84;100.00
50867;BME280;36839;51.946;21.002;2022-12-11T09:11:27;98845.50;;;-3.80;100.00
50867;BME280;36839;51.946;21.002;2022-12-11T09:13:57;98836.28;;;-3.82;100.00
50867;BME280;36839;51.946;21.002;2022-12-11T09:16:27;98836.28;;;-3.82;100.00
50867;BME280;36839;51.946;21.002;2022-12-11T09:18:56;98836.50;;;-3.83;100.00
50867;BME280;36839;51.946;21.002;2022-12-11T09:21:26;98830.48;;;-3.79;100.00
50867;BME280;36839;51.946;21.002;2022-12-11T09:23:57;98833.63;;;-3.88;100.00
50867;BME280;36839;51.946;21.002;2022-12-11T09:26:24;98833.63;;;-3.88;100.00
50867;BME280;36839;51.946;21.002;2022-12-11T09:28:53;98830.49;;;-3.85;100.00
50867;BME280;36839;51.946;21.002;2022-12-11T09:31:23;98819.92;;;-3.93;100.00
50867;BME280;36839;51.946;21.002;2022-12-11T09:33:52;98814.66;;;-3.97;100.00
50867;BME280;36839;51.946;21.002;2022-12-11T09:36:20;98805.52;;;-3.96;100.00
50867;BME280;36839;51.946;21.002;2022-12-11T09:38:47;98799.30;;;-3.97;100.00
50867;BME280;36839;51.946;21.002;2022-12-11T09:41:45;98799.30;;;-3.97;100.00
50867;BME280;36839;51.946;21.002;2022-12-11T09:44:14;98788.16;;;-3.85;100.00
50867;BME280;36839;51.946;21.002;2022-12-11T09:46:41;98784.28;;;-3.80;100.00
50867;BME280;36839;51.946;21.002;2022-12-11T09:49:24;98784.28;;;-3.80;100.00
50867;BME280;36839;51.946;21.002;2022-12-11T09:51:58;98784.49;;;-3.75;100.00
50867;BME280;36839;51.946;21.002;2022-12-11T09:54:26;98781.03;;;-3.66;100.00
50867;BME280;36839;51.946;21.002;2022-12-11T09:59:37;98776.55;;;-3.63;100.00
50867;BME280;36839;51.946;21.002;2022-12-11T10:05:01;98780.16;;;-3.82;100.00
50867;BME280;36839;51.946;21.002;2022-12-11T10:07:36;98780.16;;;-3.82;100.00
50867;BME280;36839;51.946;21.002;2022-12-11T10:10:35;98759.38;;;-3.75;100.00
50867;BME280;36839;51.946;21.002;2022-12-11T10:13:03;98756.25;;;-3.72;100.00
50867;BME280;36839;51.946;21.002;2022-12-11T10:15:36;98750.16;;;-3.77;100.00
50867;BME280;36839;51.946;21.002;2022-12-11T10:18:07;98751.59;;;-3.74;100.00
50867;BME280;36839;51.946;21.002;2022-12-11T10:20:35;98751.80;;;-3.69;100.00
50867;BME280;36839;51.946;21.002;2022-12-11T10:23:14;98750.97;;;-3.69;100.00
50867;BME280;36839;51.946;21.002;2022-12-11T10:25:43;98746.80;;;-3.72;100.00
50867;BME280;36839;51.946;21.002;2022-12-11T10:28:18;98745.70;;;-3.80;100.00
50867;BME280;36839;51.946;21.002;2022-12-11T10:37:00;98745.70;;;-3.80;100.00
50867;BME280;36839;51.946;21.002;2022-12-11T10:38:51;98735.34;;;-3.83;100.00
50867;BME280;36839;51.946;21.002;2022-12-11T10:41:23;98735.34;;;-3.83;100.00
50867;BME280;36839;51.946;21.002;2022-12-11T10:43:52;98726.56;;;-3.88;100.00
50867;BME280;36839;51.946;21.002;2022-12-11T10:46:25;98706.64;;;-3.87;100.00
50867;BME280;36839;51.946;21.002;2022-12-11T10:48:58;98711.51;;;-3.86;100.00
50867;BME280;36839;51.946;21.002;2022-12-11T10:51:32;98707.98;;;-3.87;100.00
50867;BME280;36839;51.946;21.002;2022-12-11T10:53:57;98710.27;;;-3.90;100.00
50867;BME280;36839;51.946;21.002;2022-12-11T10:56:30;98710.27;;;-3.90;100.00
50867;BME280;36839;51.946;21.002;2022-12-11T10:59:01;98700.20;;;-3.86;100.00
50867;BME280;36839;51.946;21.002;2022-12-11T11:01:30;98694.20;;;-3.88;100.00
50867;BME280;36839;51.946;21.002;2022-12-11T11:04:14;98692.02;;;-3.88;100.00
50867;BME280;36839;51.946;21.002;2022-12-11T11:06:43;98678.25;;;-3.96;100.00
50867;BME280;36839;51.946;21.002;2022-12-11T11:09:34;98678.25;;;-3.96;100.00
50867;BME280;36839;51.946;21.002;2022-12-11T11:12:02;98677.68;;;-3.89;100.00
50867;BME280;36839;51.946;21.002;2022-12-11T11:14:28;98677.68;;;-3.89;100.00
50867;BME280;36839;51.946;21.002;2022-12-11T11:16:57;98667.91;;;-3.83;100.00
50867;BME280;36839;51.946;21.002;2022-12-11T11:19:33;98667.91;;;-3.83;100.00
50867;BME280;36839;51.946;21.002;2022-12-11T11:22:14;98663.12;;;-3.81;100.00
50867;BME280;36839;51.946;21.002;2022-12-11T11:24:51;98663.12;;;-3.81;100.00
50867;BME280;36839;51.946;21.002;2022-12-11T11:30:05;98668.57;;;-3.72;100.00
50867;BME280;36839;51.946;21.002;2022-12-11T11:32:37;98659.92;;;-3.65;100.00
50867;BME280;36839;51.946;21.002;2022-12-11T11:35:17;98650.78;;;-3.64;100.00
50867;BME280;36839;51.946;21.002;2022-12-11T11:37:52;98650.48;;;-3.65;100.00
50867;BME280;36839;51.946;21.002;2022-12-11T11:40:18;98638.56;;;-3.66;100.00
50867;BME280;36839;51.946;21.002;2022-12-11T11:42:49;98647.70;;;-3.67;100.00
50867;BME280;36839;51.946;21.002;2022-12-11T11:45:28;98644.11;;;-3.61;100.00
50867;BME280;36839;51.946;21.002;2022-12-11T11:47:59;98649.73;;;-3.63;100.00
50867;BME280;36839;51.946;21.002;2022-12-11T11:50:31;98641.34;;;-3.64;100.00
50867;BME280;36839;51.946;21.002;2022-12-11T11:53:11;98641.34;;;-3.64;100.00
50867;BME280;36839;51.946;21.002;2022-12-11T11:55:42;98651.00;;;-3.65;100.00
50867;BME280;36839;51.946;21.002;2022-12-11T11:58:19;98641.72;;;-3.60;100.00
50867;BME280;36839;51.946;21.002;2022-12-11T12:00:49;98648.46;;;-3.60;100.00
50867;BME280;36839;51.946;21.002;2022-12-11T12:03:22;98657.08;;;-3.61;100.00
50867;BME280;36839;51.946;21.002;2022-12-11T12:14:15;98650.13;;;-3.75;100.00
50867;BME280;36839;51.946;21.002;2022-12-11T12:19:30;98646.39;;;-3.74;100.00
50867;BME280;36839;51.946;21.002;2022-12-11T12:22:05;98643.16;;;-3.74;100.00
50867;BME280;36839;51.946;21.002;2022-12-11T12:24:38;98650.20;;;-3.72;100.00
50867;BME280;36839;51.946;21.002;2022-12-11T12:30:02;98638.15;;;-3.70;100.00
50867;BME280;36839;51.946;21.002;2022-12-11T12:35:36;98640.36;;;-3.69;100.00
50867;BME280;36839;51.946;21.002;2022-12-11T12:44:04;98611.09;;;-3.72;100.00
50867;BME280;36839;51.946;21.002;2022-12-11T12:46:48;98611.09;;;-3.72;100.00
50867;BME280;36839;51.946;21.002;2022-12-11T12:49:27;98617.31;;;-3.72;100.00
50867;BME280;36839;51.946;21.002;2022-12-11T12:51:50;98612.17;;;-3.80;100.00
50867;BME280;36839;51.946;21.002;2022-12-11T12:54:19;98615.09;;;-3.82;100.00
50867;BME280;36839;51.946;21.002;2022-12-11T12:56:50;98611.13;;;-3.79;100.00
50867;BME280;36839;51.946;21.002;2022-12-11T12:59:23;98611.13;;;-3.79;100.00
50867;BME280;36839;51.946;21.002;2022-12-11T13:01:58;98621.20;;;-3.77;100.00
50867;BME280;36839;51.946;21.002;2022-12-11T13:04:42;98621.20;;;-3.77;100.00
50867;BME280;36839;51.946;21.002;2022-12-11T13:07:16;98615.50;;;-3.78;100.00
50867;BME280;36839;51.946;21.002;2022-12-11T13:09:55;98618.09;;;-3.81;100.00
50867;BME280;36839;51.946;21.002;2022-12-11T13:12:39;98618.31;;;-3.82;100.00
50867;BME280;36839;51.946;21.002;2022-12-11T13:14:59;98613.47;;;-3.89;100.00
50867;BME280;36839;51.946;21.002;2022-12-11T13:17:35;98609.84;;;-3.86;100.00
50867;BME280;36839;51.946;21.002;2022-12-11T13:20:12;98610.25;;;-3.89;100.00
50867;BME280;36839;51.946;21.002;2022-12-11T13:25:49;98623.05;;;-3.93;100.00
50867;BME280;36839;51.946;21.002;2022-12-11T13:33:51;98616.02;;;-3.94;100.00
50867;BME280;36839;51.946;21.002;2022-12-11T13:36:33;98616.02;;;-3.94;100.00
50867;BME280;36839;51.946;21.002;2022-12-11T13:39:05;98625.26;;;-3.99;100.00
50867;BME280;36839;51.946;21.002;2022-12-11T13:41:35;98631.83;;;-4.05;100.00
50867;BME280;36839;51.946;21.002;2022-12-11T13:44:04;98637.69;;;-4.14;100.00
50867;BME280;36839;51.946;21.002;2022-12-11T13:46:37;98630.01;;;-4.17;100.00
50867;BME280;36839;51.946;21.002;2022-12-11T13:49:17;98621.53;;;-4.21;100.00
50867;BME280;36839;51.946;21.002;2022-12-11T13:51:39;98613.97;;;-4.21;100.00
50867;BME280;36839;51.946;21.002;2022-12-11T13:54:15;98617.58;;;-4.18;100.00
50867;BME280;36839;51.946;21.002;2022-12-11T13:57:01;98618.23;;;-4.23;100.00
50867;BME280;36839;51.946;21.002;2022-12-11T13:59:35;98618.84;;;-4.21;100.00